YBNAYLHI

Guest
Details From YBNA - Ballina/Byron Gateway
To YLHI - Lord Howe Island
Flight Number -
Tags generated
Created
Modified
Stats Distance 341 nm / 632 km
Max Altitude 33,000 ft / 10,058 m
Waypoints 4
Social Downloads 0
Likes 0
Share VATSIM

Download

Looking for another format? Having issues loading an existing format? Contact us
Advertisement - Login to hide

Notes

Basic altitude profile: - Ascent Rate: 2500ft/min - Ascent Speed: 250kts - Cruise Altitude: 35000ft - Cruise Speed: 420kts - Descent Rate: 1500ft/min - Descent Speed: 250kts Options: - Use NATs: yes - Use PACOTS: yes - Use low airways: yes - Use high airways: yes

Route

YBNA CHEWY J208 LHI YLHI

ID Type Via Altitude Latitude Longitude Leg Dist Tot Dist Heading (true) Name
O YBNA APT - 0 ft / 0 m -28.83331˚ 153.56121˚ - 0 nm - Ballina/Byron Gateway
CHEWY FIX - 33,000 ft / 10,058 m -28.96806˚ 155.31500˚ 92 nm 92 nm 95° / 95° -
LHI NDB J208 (AWY-LO) 23,500 ft / 7,163 m -31.52889˚ 159.07306˚ 248 nm 340 nm 129° / 127° LORD HOWE ISLAND NDB
O YLHI APT - 0 ft / 0 m -31.53840˚ 159.07599˚ 0 nm 341 nm 165° / 165° Lord Howe Island

Altitude Profile

Advertisement - Login to hide

Weather


0- 5 10 15 20 25 30 35+ Temperature / ° C

Clouds and Precipitation
Forecast for 2018-05-25 00:00 UTC. Updated 4 hours ago

Ground ~20,000 ft ~40,000 ft Winds

YBNA

Details ICAO YBNA (BNK)
Name Ballina/Byron Gateway
Region Australia
Timezone Australia/Sydney (UTC+10.0)
Stats Elevation 6 ft / 2 m (AMSL)
Location -28.833306° 153.561207°
Runways 1
Magnetic Variation 11.559° E

METAR

YBNA 250300Z AUTO 23008KT 9999 // SCT014 BKN033 BKN055 18/16 Q1024

Decode

TAF

Not found

Departure Runways

ID Width Length Bearing (true) Bearing (mag) Surface Threshold Offset Overrun Length
06 98 ft / 30 m 6,241 ft / 1,902 m 73.50° 61.94° Asphalt 0 ft / 0 m 0 ft / 0 m
24 98 ft / 30 m 6,241 ft / 1,902 m 253.50° 241.94° Asphalt 0 ft / 0 m 0 ft / 0 m

YLHI

Details ICAO YLHI (LDH)
Name Lord Howe Island
Region Australia
Timezone Unknown (UTC+0.0)
Stats Elevation 16 ft / 5 m (AMSL)
Location -31.538405° 159.075986°
Runways 1
Magnetic Variation 14.065° E

METAR

YLHI 250300Z AUTO 22013KT 9999 // SCT045 20/10 Q1021

Decode

TAF

TAF YLHI 242259Z 2500/2524 19018G25KT 9999 -SHRA SCT030 FM250900 18014KT 9999 SCT035 FM251200 16010KT 9999 SCT025 BKN040

Decode

Destination Runways

ID Width Length Bearing (true) Bearing (mag) Surface Threshold Offset Overrun Length
10 98 ft / 30 m 2,902 ft / 885 m 114.50° 100.44° Asphalt 0 ft / 0 m 194 ft / 59 m
28 98 ft / 30 m 2,902 ft / 885 m 294.50° 280.44° Asphalt 322 ft / 98 m 190 ft / 58 m

Popular Alternatives